• Join FlightAware (Why Join?)
  • Login
  • US Flag 
03:39AM EDT


 

Airport Tracker/Info


-or-


 

Live Flight TrackerFlight Track Log ✈ N510SR ✈ 18-Sep-2013 ✈ KTEB - KABE

Flight Track Log - Related Links

Times and Time Zones

All times are in EDT time to prevent confusion due to time zone crossing. See the N510SR flight status page for this flight to view local times or setup timezone preferences in your user account.

Time Position Orientation Groundspeed Altitude Reporting Facility
EDT Latitude Longitude Course Direction KTS MPH feet Rate Location/Type
07:46PM 40.8333 -74.1000 266° West 167 192 1,500  Level New York TRACON
07:47PM 40.8167 -74.1667 252° West 213 245 1,600 840 Climbing New York TRACON
07:48PM 40.7833 -74.2500 242° Southwest 243 280 3,200 2,280 Climbing New York TRACON
07:49PM 40.7667 -74.3333 255° West 272 313 6,500 1,920 Climbing New York TRACON
07:50PM 40.7500 -74.4333 258° West 279 321 7,100 300 Climbing New York TRACON
07:51PM 40.7000 -74.5167 232° Southwest 278 320 7,100  Level New York TRACON
07:52PM 40.7948 -74.4592 266° West  Level Estimated
07:53PM 40.6544 -74.5910 231° Southwest  Level FlightAware Approximate
08:00PM 40.5415 -75.1180 261° West  Level FlightAware Approximate
08:01PM 40.5354 -75.1975 281° West  Level FlightAware Approximate
08:02PM 40.5467 -75.2768 281° West  Level FlightAware Approximate
08:03PM 40.5500 -75.3570 270° West  Level FlightAware Approximate
08:04PM 40.5521 -75.4375 278° West  Level FlightAware Approximate
08:05PM 40.5601 -75.5175 278° West  Level FlightAware Approximate
08:06PM 40.5667 -75.5977 270° West  Level FlightAware Approximate
08:07PM 40.5667 -75.6784 270° West  Level FlightAware Approximate
08:08PM 40.5848 -75.6152 37° Northeast  Level FlightAware Approximate
08:09PM 40.6108 -75.5462 75° East  Level FlightAware Approximate
08:10PM 40.6345 -75.4722 62° Northeast  Level FlightAware Approximate
08:11PM 40.6500 -75.4333 62° Northeast  Level FlightAware Approximate